createdAt,value
2023-04-02T00:01:26.818Z,100804.72
2023-04-02T00:04:22.460Z,100815.00
2023-04-02T00:06:46.174Z,100815.28
2023-04-02T00:09:36.663Z,100809.81
2023-04-02T00:12:15.577Z,100816.00
2023-04-02T00:14:39.247Z,100820.31
2023-04-02T00:17:07.289Z,100821.72
2023-04-02T00:19:37.754Z,100829.13
2023-04-02T00:22:03.561Z,100825.19
2023-04-02T00:24:27.232Z,100823.13
2023-04-02T00:26:52.925Z,100832.31
2023-04-02T00:29:18.187Z,100832.66
2023-04-02T00:31:46.452Z,100828.78
2023-04-02T00:34:19.711Z,100840.19
2023-04-02T00:36:46.697Z,100835.38
2023-04-02T00:39:21.306Z,100849.69
2023-04-02T00:41:47.742Z,100854.06
2023-04-02T00:44:14.301Z,100853.53
2023-04-02T00:46:47.121Z,100857.72
2023-04-02T00:49:21.904Z,100861.97
2023-04-02T00:51:51.640Z,100855.75
2023-04-02T00:54:16.251Z,100865.25
2023-04-02T00:56:44.657Z,100874.53
2023-04-02T00:59:22.194Z,100883.59
2023-04-02T01:01:47.197Z,100876.41
2023-04-02T01:04:34.300Z,100878.25
2023-04-02T01:06:59.757Z,100884.38
2023-04-02T01:09:39.384Z,100885.03
2023-04-02T01:12:22.149Z,100889.38
2023-04-02T01:14:56.562Z,100887.41
2023-04-02T01:17:40.181Z,100898.69
2023-04-02T01:20:40.370Z,100896.53
2023-04-02T01:23:09.298Z,100904.03
2023-04-02T01:25:42.936Z,100906.44
2023-04-02T01:28:14.885Z,100911.31
2023-04-02T01:30:41.570Z,100922.94
2023-04-02T01:33:07.131Z,100918.94
2023-04-02T01:35:37.871Z,100928.31
2023-04-02T01:38:10.561Z,100936.63
2023-04-02T01:40:40.147Z,100943.34
2023-04-02T01:43:15.760Z,100952.94
2023-04-02T01:45:41.517Z,100952.34
2023-04-02T01:48:10.520Z,100946.56
2023-04-02T01:50:38.278Z,100960.88
2023-04-02T01:53:05.417Z,100961.81
2023-04-02T01:55:37.832Z,100968.69
2023-04-02T01:58:03.903Z,100968.53
2023-04-02T02:00:30.235Z,100971.25
2023-04-02T02:02:56.244Z,100985.03
2023-04-02T02:05:23.706Z,100980.03
2023-04-02T02:07:49.616Z,100981.41
2023-04-02T02:10:17.095Z,100995.13
2023-04-02T02:12:41.027Z,100993.16
2023-04-02T02:15:05.264Z,100995.34
2023-04-02T02:17:33.770Z,101006.69
2023-04-02T02:20:01.924Z,101016.06
2023-04-02T02:22:31.250Z,101018.19
2023-04-02T02:24:55.296Z,101018.91
2023-04-02T02:27:50.465Z,101028.91
2023-04-02T02:30:19.043Z,101029.69
2023-04-02T02:32:53.752Z,101032.13
2023-04-02T02:35:23.457Z,101031.72
2023-04-02T02:37:57.883Z,101037.81
2023-04-02T02:40:28.758Z,101042.13
2023-04-02T02:42:56.560Z,101046.09
2023-04-02T02:45:26.540Z,101048.16
2023-04-02T02:47:52.764Z,101051.59
2023-04-02T02:50:24.372Z,101060.69
2023-04-02T02:52:54.305Z,101060.69
2023-04-02T02:55:20.894Z,101057.94
2023-04-02T02:58:06.968Z,101071.16
2023-04-02T03:00:39.293Z,101077.34
2023-04-02T03:03:07.359Z,101070.22
2023-04-02T03:05:32.615Z,101083.38
2023-04-02T03:08:06.410Z,101082.72
2023-04-02T03:10:38.828Z,101090.59
2023-04-02T03:13:13.514Z,101091.13
2023-04-02T03:15:44.783Z,101092.75
2023-04-02T03:18:14.781Z,101095.41
2023-04-02T03:20:46.959Z,101102.75
2023-04-02T03:23:20.534Z,101102.75
2023-04-02T03:25:50.520Z,101115.03
2023-04-02T03:28:18.430Z,101116.84
2023-04-02T03:30:48.830Z,101123.31
2023-04-02T03:33:22.690Z,101125.78
2023-04-02T03:35:59.579Z,101127.34
2023-04-02T03:38:28.711Z,101133.19
2023-04-02T03:41:03.118Z,101131.94
2023-04-02T03:43:30.362Z,101139.06
2023-04-02T03:45:59.992Z,101150.16
2023-04-02T03:48:30.390Z,101140.50
2023-04-02T03:51:01.758Z,101154.88
2023-04-02T03:53:27.041Z,101161.16
2023-04-02T03:55:51.624Z,101164.91
2023-04-02T03:58:22.561Z,101166.34
2023-04-02T04:00:53.598Z,101172.06
2023-04-02T04:03:22.864Z,101173.44
2023-04-02T04:05:51.837Z,101170.28
2023-04-02T04:08:21.038Z,101183.44
2023-04-02T04:10:45.650Z,101179.38
2023-04-02T04:13:14.759Z,101186.44
2023-04-02T04:15:42.531Z,101185.16
2023-04-02T04:18:19.234Z,101188.28
2023-04-02T04:20:50.628Z,101198.69
2023-04-02T04:23:30.139Z,101202.13
2023-04-02T04:26:01.949Z,101212.91
2023-04-02T04:28:38.435Z,101210.38
2023-04-02T04:31:09.748Z,101220.50
2023-04-02T04:33:42.068Z,101223.31
2023-04-02T04:36:28.859Z,101218.84
2023-04-02T04:39:21.556Z,101233.56
2023-04-02T04:41:49.537Z,101232.16
2023-04-02T04:44:22.591Z,101239.06
2023-04-02T04:46:55.655Z,101242.25
2023-04-02T04:49:24.540Z,101245.97
2023-04-02T04:51:53.627Z,101258.91
2023-04-02T04:54:20.261Z,101257.53
2023-04-02T04:56:49.839Z,101269.56
2023-04-02T04:59:20.587Z,101268.66
2023-04-02T05:01:51.275Z,101277.97
2023-04-02T05:04:23.896Z,101271.50
2023-04-02T05:06:55.924Z,101282.13
2023-04-02T05:09:29.002Z,101285.94
2023-04-02T05:12:07.211Z,101296.13
2023-04-02T05:14:38.974Z,101305.91
2023-04-02T05:17:08.433Z,101300.97
2023-04-02T05:19:40.965Z,101307.50
2023-04-02T05:22:17.317Z,101321.56
2023-04-02T05:24:54.311Z,101319.41
2023-04-02T05:27:28.166Z,101326.69
2023-04-02T05:29:58.932Z,101330.94
2023-04-02T05:32:27.715Z,101332.47
2023-04-02T05:34:56.083Z,101335.25
2023-04-02T05:37:24.533Z,101342.31
2023-04-02T05:39:55.552Z,101347.53
2023-04-02T05:42:24.103Z,101342.34
2023-04-02T05:45:20.871Z,101352.34
2023-04-02T05:47:48.312Z,101353.88
2023-04-02T05:50:27.164Z,101362.88
2023-04-02T05:52:57.636Z,101367.16
2023-04-02T05:55:37.172Z,101377.53
2023-04-02T05:58:33.920Z,101367.41
2023-04-02T06:01:21.028Z,101375.25
2023-04-02T06:03:54.841Z,101379.13
2023-04-02T06:06:42.618Z,101389.19
2023-04-02T06:09:14.894Z,101389.47
2023-04-02T06:11:45.672Z,101390.63
2023-04-02T06:14:14.799Z,101399.69
2023-04-02T06:16:40.111Z,101401.34
2023-04-02T06:19:11.370Z,101411.63
2023-04-02T06:21:35.061Z,101410.09
2023-04-02T06:24:03.816Z,101415.28
2023-04-02T06:26:35.404Z,101416.13
2023-04-02T06:29:07.092Z,101419.81
2023-04-02T06:31:42.301Z,101429.75
2023-04-02T06:34:17.625Z,101432.97
2023-04-02T06:36:50.941Z,101429.66
2023-04-02T06:39:22.452Z,101442.41
2023-04-02T06:41:46.762Z,101440.06
2023-04-02T06:44:36.645Z,101447.56
2023-04-02T06:47:40.174Z,101461.38
2023-04-02T06:50:11.975Z,101461.84
2023-04-02T06:52:41.664Z,101457.22
2023-04-02T06:55:27.262Z,101460.25
2023-04-02T06:57:51.395Z,101473.09
2023-04-02T07:00:29.212Z,101471.78
2023-04-02T07:02:54.920Z,101474.69
2023-04-02T07:05:18.746Z,101479.88
2023-04-02T07:07:44.660Z,101480.22
2023-04-02T07:10:10.631Z,101484.19
2023-04-02T07:12:34.426Z,101481.44
2023-04-02T07:14:58.152Z,101481.72
2023-04-02T07:17:23.359Z,101486.84
2023-04-02T07:19:49.764Z,101492.81
2023-04-02T07:22:15.986Z,101502.56
2023-04-02T07:24:40.607Z,101505.22
2023-04-02T07:27:04.383Z,101496.59
2023-04-02T07:29:28.166Z,101502.06
2023-04-02T07:31:53.914Z,101497.56
2023-04-02T07:34:19.011Z,101501.69
2023-04-02T07:36:42.722Z,101505.97
2023-04-02T07:39:06.491Z,101511.22
2023-04-02T07:41:30.195Z,101515.50
2023-04-02T07:43:53.828Z,101523.13
2023-04-02T07:46:19.206Z,101516.19
2023-04-02T07:48:42.968Z,101523.97
2023-04-02T07:51:18.605Z,101533.78
2023-04-02T07:53:42.371Z,101542.25
2023-04-02T07:56:08.281Z,101547.25
2023-04-02T07:58:33.765Z,101547.72
2023-04-02T08:00:57.605Z,101553.31
2023-04-02T08:03:21.975Z,101560.78
2023-04-02T08:05:51.400Z,101571.81
2023-04-02T08:08:16.470Z,101573.28
2023-04-02T08:10:40.104Z,101574.69
2023-04-02T08:13:03.850Z,101568.16
2023-04-02T08:15:27.417Z,101576.72
2023-04-02T08:17:51.605Z,101580.56
2023-04-02T08:20:19.323Z,101580.72
2023-04-02T08:22:42.982Z,101587.16
2023-04-02T08:25:09.614Z,101587.94
2023-04-02T08:27:33.292Z,101596.16
2023-04-02T08:29:56.885Z,101608.53
2023-04-02T08:32:22.034Z,101606.56
2023-04-02T08:34:46.652Z,101612.19
2023-04-02T08:37:13.261Z,101612.94
2023-04-02T08:39:36.907Z,101609.28
2023-04-02T08:42:08.536Z,101620.13
2023-04-02T08:44:45.353Z,101611.19
2023-04-02T08:47:10.933Z,101609.66
2023-04-02T08:49:41.838Z,101611.66
2023-04-02T08:52:05.915Z,101613.59
2023-04-02T08:54:32.362Z,101618.81
2023-04-02T08:57:03.518Z,101620.75
2023-04-02T08:59:34.844Z,101617.47
2023-04-02T09:02:08.346Z,101620.53
2023-04-02T09:04:34.930Z,101621.75
2023-04-02T09:07:01.043Z,101623.00
2023-04-02T09:09:25.274Z,101627.03
2023-04-02T09:11:55.003Z,101622.31
2023-04-02T09:14:22.990Z,101622.00
2023-04-02T09:16:49.950Z,101629.59
2023-04-02T09:19:21.350Z,101637.75
2023-04-02T09:21:49.776Z,101643.47
2023-04-02T09:24:13.978Z,101651.56
2023-04-02T09:26:37.722Z,101650.06
2023-04-02T09:29:32.979Z,101652.50
2023-04-02T09:32:08.232Z,101655.53
2023-04-02T09:34:33.895Z,101647.81
2023-04-02T09:36:58.376Z,101666.28
2023-04-02T09:39:25.881Z,101660.66
2023-04-02T09:42:02.834Z,101655.78
2023-04-02T09:44:31.582Z,101656.53
2023-04-02T09:46:59.685Z,101664.94
2023-04-02T09:49:27.475Z,101673.69
2023-04-02T09:52:13.888Z,101679.13
2023-04-02T09:54:41.869Z,101680.75
2023-04-02T09:57:06.646Z,101680.47
2023-04-02T09:59:31.800Z,101698.97
2023-04-02T10:02:03.766Z,101710.19
2023-04-02T10:04:44.110Z,101715.19
2023-04-02T10:07:08.751Z,101719.53
2023-04-02T10:09:35.463Z,101702.59
2023-04-02T10:12:01.740Z,101724.72
2023-04-02T10:14:32.660Z,101722.38
2023-04-02T10:17:01.431Z,101716.78
2023-04-02T10:19:31.521Z,101720.13
2023-04-02T10:21:56.583Z,101719.38
2023-04-02T10:24:20.784Z,101727.09
2023-04-02T10:26:58.460Z,101723.94
2023-04-02T10:30:12.893Z,101727.25
2023-04-02T10:32:43.183Z,101729.97
2023-04-02T10:35:19.243Z,101728.88
2023-04-02T10:38:34.829Z,101744.81
2023-04-02T10:41:02.607Z,101741.13
2023-04-02T10:44:13.158Z,101751.09
2023-04-02T10:46:58.185Z,101754.78
2023-04-02T10:49:33.862Z,101755.28
2023-04-02T10:52:03.013Z,101770.56
2023-04-02T10:54:42.926Z,101758.06
2023-04-02T10:57:22.053Z,101760.78
2023-04-02T10:59:52.500Z,101763.44
2023-04-02T11:02:36.108Z,101768.44
2023-04-02T11:05:04.125Z,101779.00
2023-04-02T11:07:33.540Z,101774.59
2023-04-02T11:09:59.466Z,101778.81
2023-04-02T11:12:28.506Z,101773.81
2023-04-02T11:14:54.598Z,101785.31
2023-04-02T11:17:21.393Z,101779.00
2023-04-02T11:19:46.832Z,101779.16
2023-04-02T11:22:17.352Z,101786.94
2023-04-02T11:24:46.546Z,101792.31
2023-04-02T11:27:30.738Z,101796.75
2023-04-02T11:30:04.013Z,101788.88
2023-04-02T11:32:39.616Z,101795.94
2023-04-02T11:35:41.808Z,101808.91
2023-04-02T11:38:54.915Z,101794.63
2023-04-02T11:42:05.056Z,101806.97
2023-04-02T11:44:28.656Z,101812.13
2023-04-02T11:46:52.361Z,101808.09
2023-04-02T11:49:40.115Z,101826.44
2023-04-02T11:52:12.946Z,101825.78
2023-04-02T11:54:39.785Z,101822.03
2023-04-02T11:57:21.623Z,101827.31
2023-04-02T11:59:59.400Z,101828.19
2023-04-02T12:02:29.594Z,101831.22
2023-04-02T12:05:14.692Z,101833.03
2023-04-02T12:08:16.891Z,101823.81
2023-04-02T12:10:56.626Z,101834.03
2023-04-02T12:13:21.658Z,101830.56
2023-04-02T12:15:46.688Z,101853.97
2023-04-02T12:18:17.741Z,101856.69
2023-04-02T12:20:44.950Z,101850.22
2023-04-02T12:23:21.351Z,101848.94
2023-04-02T12:25:55.086Z,101840.28
2023-04-02T12:28:20.097Z,101836.41
2023-04-02T12:30:43.891Z,101852.59
2023-04-02T12:33:25.107Z,101855.94
2023-04-02T12:35:51.658Z,101855.31
2023-04-02T12:38:25.007Z,101859.16
2023-04-02T12:40:54.472Z,101876.28
2023-04-02T12:43:28.599Z,101872.28
2023-04-02T12:45:54.888Z,101871.72
2023-04-02T12:48:18.627Z,101870.63
2023-04-02T12:50:43.005Z,101881.22
2023-04-02T12:53:22.987Z,101891.22
2023-04-02T12:55:49.498Z,101887.06
2023-04-02T12:58:37.328Z,101886.00
2023-04-02T13:01:18.472Z,101882.56
2023-04-02T13:03:42.637Z,101881.00
2023-04-02T13:06:23.417Z,101895.69
2023-04-02T13:08:48.585Z,101891.66
2023-04-02T13:11:12.171Z,101884.53
2023-04-02T13:13:39.285Z,101893.38
2023-04-02T13:16:21.316Z,101900.72
2023-04-02T13:18:47.674Z,101893.50
2023-04-02T13:21:28.841Z,101888.81
2023-04-02T13:23:54.058Z,101897.97
2023-04-02T13:26:20.240Z,101890.53
2023-04-02T13:28:44.440Z,101908.47
2023-04-02T13:31:09.785Z,101912.09
2023-04-02T13:33:33.530Z,101912.69
2023-04-02T13:35:57.224Z,101906.81
2023-04-02T13:38:21.518Z,101911.81
2023-04-02T13:40:47.096Z,101903.88
2023-04-02T13:43:19.297Z,101921.22
2023-04-02T13:45:44.121Z,101920.06
2023-04-02T13:48:10.844Z,101915.75
2023-04-02T13:50:37.438Z,101924.69
2023-04-02T13:53:10.250Z,101932.78
2023-04-02T13:55:39.952Z,101930.81
2023-04-02T13:58:06.181Z,101935.00
2023-04-02T14:00:29.804Z,101933.47
2023-04-02T14:03:01.278Z,101933.13
2023-04-02T14:05:39.082Z,101940.50
2023-04-02T14:08:10.098Z,101936.44
2023-04-02T14:10:53.152Z,101930.34
2023-04-02T14:13:39.793Z,101942.41
2023-04-02T14:16:23.119Z,101935.94
2023-04-02T14:19:13.688Z,101941.72
2023-04-02T14:21:52.047Z,101945.84
2023-04-02T14:24:21.643Z,101946.50
2023-04-02T14:27:00.548Z,101948.81
2023-04-02T14:29:32.957Z,101945.16
2023-04-02T14:32:05.046Z,101957.50
2023-04-02T14:34:36.501Z,101965.09
2023-04-02T14:37:13.167Z,101963.09
2023-04-02T14:39:45.984Z,101965.06
2023-04-02T14:42:17.319Z,101960.69
2023-04-02T14:44:48.999Z,101968.19
2023-04-02T14:47:19.732Z,101960.31
2023-04-02T14:49:45.908Z,101977.81
2023-04-02T14:52:15.425Z,101976.66
2023-04-02T14:54:45.211Z,101974.06
2023-04-02T14:57:18.978Z,101983.56
2023-04-02T14:59:58.497Z,101978.13
2023-04-02T15:02:30.723Z,101979.97
2023-04-02T15:05:01.507Z,101990.66
2023-04-02T15:07:32.410Z,101985.47
2023-04-02T15:10:07.968Z,101993.63
2023-04-02T15:12:36.646Z,101999.66
2023-04-02T15:15:10.115Z,102007.38
2023-04-02T15:17:34.168Z,102008.75
2023-04-02T15:20:08.508Z,102006.78
2023-04-02T15:22:40.318Z,102014.72
2023-04-02T15:25:18.897Z,102008.13
2023-04-02T15:28:01.368Z,102014.25
2023-04-02T15:30:33.132Z,102017.53
2023-04-02T15:33:20.738Z,102024.09
2023-04-02T15:35:48.500Z,102032.19
2023-04-02T15:38:19.451Z,102038.06
2023-04-02T15:40:56.328Z,102029.25
2023-04-02T15:43:25.871Z,102027.75
2023-04-02T15:46:11.514Z,102041.88
2023-04-02T15:48:56.094Z,102042.88
2023-04-02T15:51:37.747Z,102052.78
2023-04-02T15:54:16.202Z,102056.06
2023-04-02T15:56:54.121Z,102056.59
2023-04-02T15:59:42.462Z,102056.16
2023-04-02T16:02:42.167Z,102064.28
2023-04-02T16:05:18.738Z,102072.28
2023-04-02T16:08:13.181Z,102072.06
2023-04-02T16:10:42.374Z,102081.41
2023-04-02T16:13:20.693Z,102077.91
2023-04-02T16:15:50.230Z,102079.63
2023-04-02T16:18:25.860Z,102084.47
2023-04-02T16:20:52.833Z,102089.00
2023-04-02T16:23:22.345Z,102094.19
2023-04-02T16:25:57.430Z,102109.97
2023-04-02T16:28:28.897Z,102107.09
2023-04-02T16:30:59.693Z,102106.28
2023-04-02T16:33:46.018Z,102117.47
2023-04-02T16:36:27.497Z,102120.06
2023-04-02T16:39:03.405Z,102139.69
2023-04-02T16:41:44.306Z,102140.50
2023-04-02T16:44:24.383Z,102145.06
2023-04-02T16:47:01.468Z,102138.56
2023-04-02T16:49:37.580Z,102149.88
2023-04-02T16:52:16.484Z,102146.84
2023-04-02T16:55:04.483Z,102150.81
2023-04-02T16:57:37.985Z,102163.13
2023-04-02T17:00:11.682Z,102164.28
2023-04-02T17:02:53.074Z,102165.16
2023-04-02T17:05:31.903Z,102166.88
2023-04-02T17:08:07.346Z,102168.03
2023-04-02T17:10:34.404Z,102170.38
2023-04-02T17:13:12.118Z,102174.84
2023-04-02T17:15:39.522Z,102181.53
2023-04-02T17:18:11.780Z,102180.34
2023-04-02T17:20:37.236Z,102179.94
2023-04-02T17:23:04.741Z,102179.66
2023-04-02T17:25:35.140Z,102184.03
2023-04-02T17:27:59.442Z,102203.84
2023-04-02T17:30:36.044Z,102198.50
2023-04-02T17:32:59.975Z,102201.97
2023-04-02T17:35:29.852Z,102211.69
2023-04-02T17:38:04.111Z,102220.47
2023-04-02T17:40:32.609Z,102227.84
2023-04-02T17:43:05.130Z,102227.69
2023-04-02T17:45:39.539Z,102223.88
2023-04-02T17:48:08.768Z,102224.78
2023-04-02T17:50:47.739Z,102230.53
2023-04-02T17:53:28.389Z,102236.38
2023-04-02T17:56:07.048Z,102241.94
2023-04-02T17:58:57.647Z,102249.81
2023-04-02T18:01:30.993Z,102256.19
2023-04-02T18:04:08.439Z,102247.75
2023-04-02T18:06:41.810Z,102249.72
2023-04-02T18:09:29.837Z,102262.81
2023-04-02T18:12:07.542Z,102270.22
2023-04-02T18:14:55.723Z,102274.38
2023-04-02T18:17:30.061Z,102277.00
2023-04-02T18:20:04.033Z,102270.22
2023-04-02T18:22:34.888Z,102281.69
2023-04-02T18:25:19.908Z,102285.88
2023-04-02T18:28:12.050Z,102292.44
2023-04-02T18:30:40.856Z,102290.28
2023-04-02T18:33:30.641Z,102295.88
2023-04-02T18:36:06.450Z,102302.00
2023-04-02T18:38:43.182Z,102310.22
2023-04-02T18:41:24.416Z,102312.75
2023-04-02T18:44:04.131Z,102316.97
2023-04-02T18:46:39.986Z,102324.09
2023-04-02T18:49:21.663Z,102325.56
2023-04-02T18:51:46.418Z,102322.69
2023-04-02T18:54:22.448Z,102327.09
2023-04-02T18:56:47.681Z,102331.97
2023-04-02T18:59:34.792Z,102342.59
2023-04-02T19:02:00.206Z,102343.22
2023-04-02T19:04:29.866Z,102345.97
2023-04-02T19:06:58.868Z,102355.38
2023-04-02T19:09:27.375Z,102355.81
2023-04-02T19:11:53.220Z,102367.56
2023-04-02T19:14:20.170Z,102364.16
2023-04-02T19:17:02.773Z,102366.59
2023-04-02T19:19:30.783Z,102380.31
2023-04-02T19:22:16.892Z,102374.25
2023-04-02T19:25:07.985Z,102379.31
2023-04-02T19:27:42.936Z,102381.50
2023-04-02T19:30:30.614Z,102386.75
2023-04-02T19:33:08.389Z,102394.13
2023-04-02T19:35:38.955Z,102396.41
2023-04-02T19:38:24.310Z,102403.94
2023-04-02T19:40:55.154Z,102412.03
2023-04-02T19:43:20.335Z,102413.50
2023-04-02T19:45:46.932Z,102411.06
2023-04-02T19:48:17.334Z,102410.00
2023-04-02T19:50:41.266Z,102425.69
2023-04-02T19:53:05.051Z,102412.59
2023-04-02T19:55:28.884Z,102417.19
2023-04-02T19:57:54.632Z,102415.31
2023-04-02T20:00:23.424Z,102431.31
2023-04-02T20:02:47.084Z,102435.53
2023-04-02T20:05:11.492Z,102433.41
2023-04-02T20:07:35.214Z,102430.34
2023-04-02T20:09:58.919Z,102426.63
2023-04-02T20:12:22.600Z,102432.88
2023-04-02T20:14:46.189Z,102437.22
2023-04-02T20:17:11.293Z,102438.19
2023-04-02T20:19:34.928Z,102443.50
2023-04-02T20:21:58.555Z,102446.41
2023-04-02T20:24:22.229Z,102448.31
2023-04-02T20:26:45.946Z,102452.09
2023-04-02T20:29:09.575Z,102456.50
2023-04-02T20:31:33.527Z,102465.31
2023-04-02T20:33:59.585Z,102472.00
2023-04-02T20:36:24.682Z,102473.41
2023-04-02T20:38:48.446Z,102474.91
2023-04-02T20:41:12.693Z,102476.41
2023-04-02T20:43:40.677Z,102486.00
2023-04-02T20:46:08.350Z,102488.50
2023-04-02T20:48:35.232Z,102491.22
2023-04-02T20:51:02.022Z,102492.91
2023-04-02T20:53:26.327Z,102499.63
2023-04-02T20:55:50.326Z,102502.63
2023-04-02T20:58:14.218Z,102506.06
2023-04-02T21:00:37.895Z,102504.03
2023-04-02T21:03:01.954Z,102504.13
2023-04-02T21:05:25.868Z,102512.06
2023-04-02T21:07:51.017Z,102512.19
2023-04-02T21:10:14.735Z,102503.28
2023-04-02T21:12:38.438Z,102502.59
2023-04-02T21:15:02.932Z,102512.56
2023-04-02T21:17:27.195Z,102514.59
2023-04-02T21:19:50.960Z,102515.00
2023-04-02T21:22:14.632Z,102518.31
2023-04-02T21:24:39.756Z,102519.97
2023-04-02T21:27:03.454Z,102519.94
2023-04-02T21:29:27.221Z,102526.53
2023-04-02T21:31:51.247Z,102524.50
2023-04-02T21:34:17.429Z,102522.28
2023-04-02T21:36:44.515Z,102530.34
2023-04-02T21:39:10.644Z,102522.34
2023-04-02T21:41:37.980Z,102534.75
2023-04-02T21:44:05.461Z,102526.13
2023-04-02T21:46:32.435Z,102531.31
2023-04-02T21:48:59.566Z,102529.84
2023-04-02T21:51:26.228Z,102536.72
2023-04-02T21:53:50.828Z,102532.72
2023-04-02T21:56:16.609Z,102541.75
2023-04-02T21:58:43.407Z,102548.91
2023-04-02T22:01:14.035Z,102554.75
2023-04-02T22:03:44.279Z,102541.25
2023-04-02T22:06:10.677Z,102553.63
2023-04-02T22:08:34.550Z,102555.63
2023-04-02T22:10:58.320Z,102558.78
2023-04-02T22:13:22.088Z,102559.16
2023-04-02T22:15:47.167Z,102562.78
2023-04-02T22:18:10.964Z,102567.13
2023-04-02T22:20:34.795Z,102566.16
2023-04-02T22:22:58.768Z,102563.91
2023-04-02T22:25:22.563Z,102560.72
2023-04-02T22:27:46.305Z,102563.56
2023-04-02T22:30:11.501Z,102569.94
2023-04-02T22:32:37.462Z,102578.59
2023-04-02T22:35:01.155Z,102572.59
2023-04-02T22:37:24.914Z,102571.91
2023-04-02T22:39:48.621Z,102576.16
2023-04-02T22:42:12.319Z,102582.56
2023-04-02T22:44:36.063Z,102586.22
2023-04-02T22:46:59.729Z,102587.16
2023-04-02T22:49:24.869Z,102589.59
2023-04-02T22:51:48.855Z,102584.25
2023-04-02T22:54:12.596Z,102586.78
2023-04-02T22:56:37.577Z,102589.53
2023-04-02T22:59:01.464Z,102592.41
2023-04-02T23:01:28.595Z,102595.81
2023-04-02T23:03:55.249Z,102594.75
2023-04-02T23:06:20.393Z,102602.25
2023-04-02T23:08:44.445Z,102603.91
2023-04-02T23:11:11.849Z,102612.00
2023-04-02T23:13:36.330Z,102608.31
2023-04-02T23:16:02.054Z,102610.97
2023-04-02T23:18:26.008Z,102610.00
2023-04-02T23:20:50.016Z,102611.88
2023-04-02T23:23:15.546Z,102608.94
2023-04-02T23:25:41.279Z,102622.56
2023-04-02T23:28:05.605Z,102610.91
2023-04-02T23:30:29.579Z,102621.59
2023-04-02T23:32:53.427Z,102620.69
2023-04-02T23:35:17.572Z,102628.50
2023-04-02T23:37:42.094Z,102619.06
2023-04-02T23:40:10.135Z,102626.97
2023-04-02T23:42:34.003Z,102630.56
2023-04-02T23:44:57.941Z,102631.41
2023-04-02T23:47:21.767Z,102637.47
2023-04-02T23:49:47.943Z,102639.19
2023-04-02T23:52:11.752Z,102630.50
2023-04-02T23:54:35.763Z,102635.69
2023-04-02T23:57:01.065Z,102637.50
2023-04-02T23:59:25.057Z,102633.88
